createdAt,value
2022-08-27T00:01:39.801Z,18.89
2022-08-27T00:05:47.057Z,18.88
2022-08-27T00:09:08.504Z,18.84
2022-08-27T00:11:06.550Z,18.86
2022-08-27T00:12:36.526Z,18.84
2022-08-27T00:14:28.147Z,18.83
2022-08-27T00:19:53.047Z,18.84
2022-08-27T00:22:20.933Z,18.84
2022-08-27T00:24:18.883Z,18.81
2022-08-27T00:26:40.162Z,18.80
2022-08-27T00:34:52.651Z,18.78
2022-08-27T00:40:59.493Z,18.73
2022-08-27T00:43:48.685Z,18.70
2022-08-27T00:47:52.877Z,18.65
2022-08-27T00:56:40.334Z,18.63
2022-08-27T01:04:16.308Z,18.60
2022-08-27T01:06:16.359Z,18.60
2022-08-27T01:08:43.008Z,18.59
2022-08-27T01:10:39.153Z,18.58
2022-08-27T01:12:57.062Z,18.56
2022-08-27T01:20:53.340Z,18.55
2022-08-27T01:23:40.993Z,18.52
2022-08-27T01:26:00.527Z,18.50
2022-08-27T01:28:52.083Z,18.52
2022-08-27T01:31:10.021Z,18.49
2022-08-27T01:33:27.603Z,18.49
2022-08-27T01:38:38.546Z,18.47
2022-08-27T01:40:05.832Z,18.45
2022-08-27T01:41:35.458Z,18.47
2022-08-27T01:45:17.219Z,18.44
2022-08-27T01:47:36.855Z,18.41
2022-08-27T01:49:24.614Z,18.43
2022-08-27T01:53:43.980Z,18.37
2022-08-27T01:56:27.313Z,18.35
2022-08-27T01:57:56.405Z,18.34
2022-08-27T02:02:23.124Z,18.35
2022-08-27T02:05:02.560Z,18.34
2022-08-27T02:10:21.783Z,18.31
2022-08-27T02:12:18.540Z,18.26
2022-08-27T02:14:41.993Z,18.28
2022-08-27T02:18:06.378Z,18.26
2022-08-27T02:20:05.322Z,18.25
2022-08-27T02:23:14.289Z,18.20
2022-08-27T02:26:43.264Z,18.18
2022-08-27T02:29:34.040Z,18.15
2022-08-27T02:33:44.785Z,18.13
2022-08-27T02:38:07.446Z,18.08
2022-08-27T02:40:50.921Z,18.05
2022-08-27T02:48:44.032Z,17.97
2022-08-27T02:50:47.785Z,17.97
2022-08-27T02:55:59.244Z,17.94
2022-08-27T02:58:49.937Z,17.89
2022-08-27T03:02:57.362Z,17.85
2022-08-27T03:04:45.582Z,17.83
2022-08-27T03:09:44.897Z,17.82
2022-08-27T03:11:17.105Z,17.79
2022-08-27T03:19:50.803Z,17.68
2022-08-27T03:23:30.134Z,17.63
2022-08-27T03:30:35.234Z,17.56
2022-08-27T03:32:05.466Z,17.54
2022-08-27T03:33:56.215Z,17.51
2022-08-27T03:35:25.515Z,17.49
2022-08-27T03:36:59.200Z,17.48
2022-08-27T03:40:22.253Z,17.45
2022-08-27T03:42:42.898Z,17.41
2022-08-27T03:44:11.783Z,17.39
2022-08-27T03:47:28.428Z,17.36
2022-08-27T03:48:58.595Z,17.38
2022-08-27T03:53:23.125Z,17.31
2022-08-27T03:55:55.421Z,17.30
2022-08-27T03:58:15.320Z,17.27
2022-08-27T04:00:14.859Z,17.24
2022-08-27T04:02:42.372Z,17.23
2022-08-27T04:06:45.450Z,17.15
2022-08-27T04:09:14.382Z,17.12
2022-08-27T04:11:46.019Z,17.09
2022-08-27T04:18:18.188Z,17.05
2022-08-27T04:20:56.989Z,17.04
2022-08-27T04:22:44.937Z,17.01
2022-08-27T04:25:17.674Z,16.97
2022-08-27T04:34:41.508Z,16.79
2022-08-27T04:36:08.521Z,16.78
2022-08-27T04:38:36.630Z,16.76
2022-08-27T04:41:08.431Z,16.71
2022-08-27T04:44:16.631Z,16.68
2022-08-27T04:55:02.836Z,16.53
2022-08-27T04:57:25.906Z,16.49
2022-08-27T04:58:53.410Z,16.49
2022-08-27T05:00:24.168Z,16.47
2022-08-27T05:02:23.344Z,16.46
2022-08-27T05:03:50.229Z,16.47
2022-08-27T05:11:36.189Z,16.49
2022-08-27T05:17:25.233Z,16.51
2022-08-27T05:20:22.370Z,16.53
2022-08-27T05:23:10.174Z,16.53
2022-08-27T05:24:39.064Z,16.54
2022-08-27T05:29:27.603Z,16.58
2022-08-27T05:30:57.976Z,16.57
2022-08-27T05:33:17.275Z,16.57
2022-08-27T05:34:47.146Z,16.58
2022-08-27T05:38:29.957Z,16.58
2022-08-27T05:39:59.943Z,16.58
2022-08-27T05:42:18.768Z,16.61
2022-08-27T05:46:06.523Z,16.60
2022-08-27T05:47:55.893Z,16.58
2022-08-27T05:50:52.181Z,16.57
2022-08-27T05:56:56.743Z,16.56
2022-08-27T06:01:06.980Z,16.54
2022-08-27T06:03:23.901Z,16.53
2022-08-27T06:05:31.921Z,16.54
2022-08-27T06:07:21.527Z,16.51
2022-08-27T06:09:22.236Z,16.53
2022-08-27T06:11:10.950Z,16.50
2022-08-27T06:15:08.535Z,16.50
2022-08-27T06:20:18.312Z,16.49
2022-08-27T06:22:14.836Z,16.50
2022-08-27T06:30:17.333Z,16.56
2022-08-27T06:34:43.467Z,16.60
2022-08-27T06:38:13.279Z,16.65
2022-08-27T06:40:03.038Z,16.68
2022-08-27T06:42:59.661Z,16.74
2022-08-27T06:44:28.504Z,16.78
2022-08-27T06:47:16.993Z,16.84
2022-08-27T06:50:42.363Z,16.91
2022-08-27T07:03:42.259Z,17.26
2022-08-27T07:10:38.114Z,17.49
2022-08-27T07:13:35.704Z,17.64
2022-08-27T07:20:22.718Z,17.95
2022-08-27T07:22:51.414Z,18.05
2022-08-27T07:30:34.263Z,18.40
2022-08-27T07:34:01.195Z,18.53
2022-08-27T07:37:32.425Z,18.65
2022-08-27T07:39:46.041Z,18.73
2022-08-27T07:45:59.594Z,18.95
2022-08-27T07:48:17.190Z,19.04
2022-08-27T07:51:33.188Z,19.15
2022-08-27T07:55:10.467Z,19.26
2022-08-27T07:58:29.176Z,19.31
2022-08-27T08:00:47.639Z,19.39
2022-08-27T08:02:16.504Z,19.40
2022-08-27T08:09:49.045Z,19.58
2022-08-27T08:15:42.387Z,19.66
2022-08-27T08:17:41.625Z,19.70
2022-08-27T08:19:12.919Z,19.70
2022-08-27T08:21:40.116Z,19.74
2022-08-27T08:34:59.250Z,20.18
2022-08-27T08:38:55.804Z,20.31
2022-08-27T08:40:24.738Z,20.34
2022-08-27T08:45:01.262Z,20.48
2022-08-27T08:52:12.306Z,20.44
2022-08-27T08:54:33.258Z,20.40
2022-08-27T08:57:31.358Z,20.41
2022-08-27T09:01:38.005Z,20.43
2022-08-27T09:06:23.595Z,20.50
2022-08-27T09:08:34.150Z,20.55
2022-08-27T09:16:14.483Z,20.63
2022-08-27T09:17:43.455Z,20.65
2022-08-27T09:19:43.886Z,20.66
2022-08-27T09:27:21.890Z,20.87
2022-08-27T09:30:52.599Z,20.92
2022-08-27T09:32:53.725Z,20.92
2022-08-27T09:34:43.567Z,20.92
2022-08-27T09:37:54.520Z,20.92
2022-08-27T09:39:23.632Z,20.88
2022-08-27T09:44:41.028Z,20.92
2022-08-27T09:48:48.555Z,20.90
2022-08-27T09:56:25.376Z,20.84
2022-08-27T10:02:28.650Z,20.88
2022-08-27T10:05:29.371Z,20.95
2022-08-27T10:07:58.254Z,20.97
2022-08-27T10:11:43.903Z,21.00
2022-08-27T10:22:12.532Z,21.20
2022-08-27T10:25:40.700Z,21.39
2022-08-27T10:28:39.738Z,21.51
2022-08-27T10:30:55.660Z,21.73
2022-08-27T10:32:55.906Z,21.85
2022-08-27T10:34:54.193Z,21.92
2022-08-27T10:37:50.639Z,21.95
2022-08-27T10:47:04.147Z,21.89
2022-08-27T10:49:04.306Z,21.88
2022-08-27T10:56:34.030Z,22.35
2022-08-27T10:59:20.747Z,22.69
2022-08-27T11:03:09.353Z,22.96
2022-08-27T11:04:37.353Z,22.96
2022-08-27T11:06:56.526Z,22.91
2022-08-27T11:08:55.607Z,22.87
2022-08-27T11:14:53.280Z,22.70
2022-08-27T11:16:22.361Z,22.68
2022-08-27T11:18:52.753Z,22.59
2022-08-27T11:20:21.955Z,22.53
2022-08-27T11:22:14.903Z,22.48
2022-08-27T11:26:24.297Z,22.45
2022-08-27T11:29:22.013Z,22.47
2022-08-27T11:31:21.085Z,22.47
2022-08-27T11:32:50.776Z,22.45
2022-08-27T11:34:49.664Z,22.48
2022-08-27T11:37:48.420Z,22.47
2022-08-27T11:39:18.284Z,22.47
2022-08-27T11:41:17.210Z,22.44
2022-08-27T11:46:02.594Z,22.36
2022-08-27T11:47:31.435Z,22.33
2022-08-27T11:50:30.778Z,22.30
2022-08-27T11:52:58.090Z,22.30
2022-08-27T11:54:27.970Z,22.33
2022-08-27T11:59:15.020Z,22.33
2022-08-27T12:02:11.167Z,22.38
2022-08-27T12:06:05.549Z,22.44
2022-08-27T12:10:58.118Z,22.51
2022-08-27T12:14:54.017Z,22.48
2022-08-27T12:16:52.260Z,22.54
2022-08-27T12:18:50.090Z,22.53
2022-08-27T12:20:47.906Z,22.53
2022-08-27T12:22:47.796Z,22.53
2022-08-27T12:26:33.223Z,22.51
2022-08-27T12:28:02.120Z,22.51
2022-08-27T12:32:56.519Z,22.57
2022-08-27T12:36:54.297Z,22.70
2022-08-27T12:40:10.879Z,22.75
2022-08-27T12:43:37.429Z,22.70
2022-08-27T12:45:56.014Z,22.69
2022-08-27T12:48:24.732Z,22.65
2022-08-27T12:50:22.597Z,22.60
2022-08-27T12:51:51.524Z,22.62
2022-08-27T12:56:46.254Z,22.54
2022-08-27T12:59:14.195Z,22.54
2022-08-27T13:07:44.195Z,22.35
2022-08-27T13:09:41.943Z,22.33
2022-08-27T13:11:12.289Z,22.33
2022-08-27T13:12:39.970Z,22.33
2022-08-27T13:14:09.785Z,22.33
2022-08-27T13:15:38.728Z,22.35
2022-08-27T13:17:07.549Z,22.36
2022-08-27T13:22:01.367Z,22.41
2022-08-27T13:28:15.811Z,22.54
2022-08-27T13:33:09.928Z,22.59
2022-08-27T13:38:16.398Z,22.54
2022-08-27T13:48:36.288Z,22.43
2022-08-27T13:51:03.918Z,22.39
2022-08-27T13:53:31.561Z,22.35
2022-08-27T13:56:30.640Z,22.35
2022-08-27T13:58:58.612Z,22.33
2022-08-27T14:00:56.107Z,22.35
2022-08-27T14:08:38.564Z,22.39
2022-08-27T14:13:22.847Z,22.44
2022-08-27T14:19:16.364Z,22.54
2022-08-27T14:22:44.529Z,22.60
2022-08-27T14:28:37.840Z,22.81
2022-08-27T14:31:36.463Z,22.88
2022-08-27T14:37:51.618Z,23.68
2022-08-27T14:39:51.485Z,24.18
2022-08-27T14:43:18.227Z,24.11
2022-08-27T14:44:47.104Z,24.06
2022-08-27T14:48:51.733Z,23.80
2022-08-27T14:50:18.126Z,23.71
2022-08-27T14:55:32.407Z,23.37
2022-08-27T14:57:31.170Z,23.25
2022-08-27T15:00:29.761Z,23.12
2022-08-27T15:02:58.691Z,23.06
2022-08-27T15:04:28.060Z,23.02
2022-08-27T15:06:56.444Z,22.94
2022-08-27T15:11:21.375Z,22.88
2022-08-27T15:13:20.374Z,22.84
2022-08-27T15:15:48.098Z,22.83
2022-08-27T15:17:46.832Z,22.83
2022-08-27T15:21:13.598Z,22.81
2022-08-27T15:24:12.175Z,22.83
2022-08-27T15:27:38.467Z,22.83
2022-08-27T15:29:33.266Z,22.83
2022-08-27T15:32:52.004Z,22.80
2022-08-27T15:37:18.552Z,22.73
2022-08-27T15:40:14.172Z,22.70
2022-08-27T15:43:50.365Z,22.69
2022-08-27T15:45:19.256Z,22.69
2022-08-27T15:48:17.152Z,22.66
2022-08-27T15:50:15.352Z,22.63
2022-08-27T15:55:10.097Z,22.60
2022-08-27T15:58:05.894Z,22.59
2022-08-27T16:02:51.367Z,22.55
2022-08-27T16:06:47.060Z,22.54
2022-08-27T16:08:16.934Z,22.53
2022-08-27T16:10:14.901Z,22.54
2022-08-27T16:13:13.533Z,22.53
2022-08-27T16:18:08.899Z,22.48
2022-08-27T16:23:34.449Z,22.43
2022-08-27T16:25:33.250Z,22.39
2022-08-27T16:30:26.986Z,22.36
2022-08-27T16:32:54.382Z,22.33
2022-08-27T16:35:22.033Z,22.33
2022-08-27T16:39:47.598Z,22.36
2022-08-27T16:42:44.197Z,22.36
2022-08-27T16:44:42.972Z,22.38
2022-08-27T16:48:41.094Z,22.35
2022-08-27T16:50:11.007Z,22.33
2022-08-27T16:52:12.343Z,22.33
2022-08-27T16:54:02.062Z,22.32
2022-08-27T16:55:30.946Z,22.32
2022-08-27T16:59:54.979Z,22.30
2022-08-27T17:04:07.982Z,22.28
2022-08-27T17:05:35.953Z,22.26
2022-08-27T17:06:51.408Z,22.23
2022-08-27T17:10:48.953Z,22.22
2022-08-27T17:13:44.785Z,22.20
2022-08-27T17:17:12.461Z,22.15
2022-08-27T17:18:42.345Z,22.13
2022-08-27T17:20:12.277Z,22.10
2022-08-27T17:23:38.997Z,22.08
2022-08-27T17:26:06.665Z,22.00
2022-08-27T17:28:05.541Z,21.96
2022-08-27T17:30:03.432Z,21.95
2022-08-27T17:32:31.175Z,21.93
2022-08-27T17:34:30.159Z,21.92
2022-08-27T17:36:28.150Z,21.92
2022-08-27T17:37:58.503Z,21.89
2022-08-27T17:39:56.017Z,21.88
2022-08-27T17:41:24.977Z,21.82
2022-08-27T17:42:54.230Z,21.82
2022-08-27T17:44:52.636Z,21.79
2022-08-27T17:48:48.961Z,21.73
2022-08-27T17:55:31.949Z,21.61
2022-08-27T17:57:01.615Z,21.57
2022-08-27T17:58:58.712Z,21.52
2022-08-27T18:01:54.722Z,21.40
2022-08-27T18:03:44.950Z,21.35
2022-08-27T18:07:33.927Z,21.30
2022-08-27T18:08:59.148Z,21.27
2022-08-27T18:11:26.225Z,21.24
2022-08-27T18:13:55.486Z,21.20
2022-08-27T18:15:43.896Z,21.17
2022-08-27T18:18:42.124Z,21.09
2022-08-27T18:20:11.772Z,21.06
2022-08-27T18:21:46.949Z,21.00
2022-08-27T18:23:21.142Z,20.99
2022-08-27T18:26:40.725Z,20.88
2022-08-27T18:28:09.653Z,20.82
2022-08-27T18:33:06.157Z,20.65
2022-08-27T18:34:35.060Z,20.59
2022-08-27T18:41:27.631Z,20.41
2022-08-27T18:44:53.554Z,20.37
2022-08-27T18:46:22.464Z,20.32
2022-08-27T18:49:20.149Z,20.26
2022-08-27T18:51:52.426Z,20.19
2022-08-27T18:55:04.372Z,20.16
2022-08-27T18:56:34.408Z,20.09
2022-08-27T18:59:02.354Z,20.04
2022-08-27T19:01:02.135Z,20.00
2022-08-27T19:02:30.701Z,19.96
2022-08-27T19:07:13.941Z,19.84
2022-08-27T19:08:42.765Z,19.77
2022-08-27T19:10:12.341Z,19.73
2022-08-27T19:13:07.574Z,19.64
2022-08-27T19:15:06.360Z,19.62
2022-08-27T19:21:30.672Z,19.49
2022-08-27T19:23:29.452Z,19.45
2022-08-27T19:25:27.371Z,19.47
2022-08-27T19:29:22.994Z,19.39
2022-08-27T19:30:51.943Z,19.36
2022-08-27T19:34:17.871Z,19.30
2022-08-27T19:36:16.954Z,19.24
2022-08-27T19:38:15.537Z,19.22
2022-08-27T19:44:55.317Z,19.11
2022-08-27T19:52:13.870Z,19.00
2022-08-27T19:56:36.341Z,18.92
2022-08-27T19:58:36.294Z,18.89
2022-08-27T20:00:35.071Z,18.88
2022-08-27T20:02:33.893Z,18.84
2022-08-27T20:04:02.803Z,18.80
2022-08-27T20:06:01.006Z,18.75
2022-08-27T20:07:29.699Z,18.75
2022-08-27T20:09:57.476Z,18.71
2022-08-27T20:11:56.309Z,18.68
2022-08-27T20:17:40.616Z,18.60
2022-08-27T20:21:06.689Z,18.53
2022-08-27T20:23:06.486Z,18.52
2022-08-27T20:25:35.262Z,18.47
2022-08-27T20:28:38.957Z,18.44
2022-08-27T20:30:22.870Z,18.41
2022-08-27T20:33:20.504Z,18.37
2022-08-27T20:36:49.400Z,18.31
2022-08-27T20:38:47.649Z,18.28
2022-08-27T20:40:17.094Z,18.26
2022-08-27T20:41:45.948Z,18.26
2022-08-27T20:47:00.070Z,18.13
2022-08-27T20:48:28.943Z,18.10
2022-08-27T20:54:49.847Z,18.00
2022-08-27T20:56:52.876Z,17.94
2022-08-27T21:02:46.191Z,17.83
2022-08-27T21:06:42.440Z,17.79
2022-08-27T21:08:11.459Z,17.76
2022-08-27T21:09:55.618Z,17.74
2022-08-27T21:12:00.845Z,17.70
2022-08-27T21:13:59.619Z,17.67
2022-08-27T21:22:40.186Z,17.49
2022-08-27T21:24:09.532Z,17.48
2022-08-27T21:26:07.997Z,17.46
2022-08-27T21:31:02.709Z,17.41
2022-08-27T21:35:29.004Z,17.33
2022-08-27T21:38:54.916Z,17.27
2022-08-27T21:44:46.082Z,17.20
2022-08-27T21:47:14.825Z,17.19
2022-08-27T21:48:44.002Z,17.15
2022-08-27T21:54:10.396Z,17.09
2022-08-27T21:59:31.980Z,17.04
2022-08-27T22:01:02.220Z,17.02
2022-08-27T22:03:00.677Z,16.97
2022-08-27T22:05:27.618Z,16.94
2022-08-27T22:10:12.892Z,16.89
2022-08-27T22:19:02.509Z,16.81
2022-08-27T22:20:31.118Z,16.81
2022-08-27T22:22:00.003Z,16.78
2022-08-27T22:27:23.255Z,16.74
2022-08-27T22:29:21.037Z,16.74
2022-08-27T22:33:47.376Z,16.69
2022-08-27T22:37:05.354Z,16.64
2022-08-27T22:42:46.425Z,16.51
2022-08-27T22:46:34.223Z,16.43
2022-08-27T22:49:22.699Z,16.41
2022-08-27T22:51:21.439Z,16.38
2022-08-27T22:56:15.213Z,16.32
2022-08-27T22:58:45.822Z,16.31
2022-08-27T23:02:37.488Z,16.26
2022-08-27T23:04:06.671Z,16.24
2022-08-27T23:05:40.461Z,16.23
2022-08-27T23:07:35.332Z,16.21
2022-08-27T23:09:33.187Z,16.17
2022-08-27T23:11:02.050Z,16.16
2022-08-27T23:16:57.180Z,16.10
2022-08-27T23:19:15.722Z,16.10
2022-08-27T23:20:44.642Z,16.08
2022-08-27T23:32:17.572Z,15.95
2022-08-27T23:37:41.143Z,15.92
2022-08-27T23:43:35.458Z,15.86
2022-08-27T23:46:34.010Z,15.80
2022-08-27T23:50:02.694Z,15.77
2022-08-27T23:52:32.558Z,15.76
